Pagina principale
METAR-TAF:

METAR-TAF

Aeroporti :

Dübendorf, Svizzera

latitudine: 47-23-55N, longitudine: 8-38-53E, altezza: 448 m

Osservazione

Il bollettino è stato emesso 36 minuti fa, alle 19:20 UTC
Vento calmo
Temperature 13°C
Umidità 88%
Pressione 1019 hPa
Visibilità 10 km o più
Nubi sparse ad un'altezza di 10000 ft
Nuvoloso ad un'altezza di 12000 ft

METAR: LSMD 241920Z AUTO 00000KT 9999NDV SCT100 BKN120 13/11 Q1019 RMK

Ora: 21:56 (19:56 UTC)


TAF: mancante

Osservazioni e previsioni meteorologiche di più di 4000 aeroporti (messaggi METAR e TAF).

Le stazioni disponibili sono rappresentate dai dischi gialli e rossi sulla carta.

Puntare il mouse per vedere il nome della stazione.

Clicca sopra per visualizzare le osservazioni e previsioni meteorologiche.

Per cambiare la mappa : fare clic sui pulsanti verdi con una croce nera per ingrandire, il pulsante verde con un trattino per diminuire, o sulla freccia verde per le mappe adiacenti.


METAR-TAF: